Campbell Foss — WDC7754 — position and weather

sailwx.info

Track history (hours):
 
Tides and Currents Weather Stations Pressure Air Temp Water Temp Dewpoint Dewpoint Depression Visibility Wind Speed Wind Dir Waves Ship Positions

Campbell Foss

Owner: Foss Maritime Co., Seattle, WA. More information available from US FCC via Universal Licensing System and Coast Guard Vessel Documentation Center.

Last reported at 2018-Feb-04 18:01 UTC. Time now 2018-Feb-21 17:33 UTC.
Position N 33°46' W 118°13'.
Warning: this ship's position is 16 days out of date.

Length 23 m; draft 16 m.

Type: Tug. MMSI: 367076360.

Date/timePositionNaut miles runAvg speedWind from/ knotsBaromVisibWave heightAir tempDewpointWater temp
2018-Feb-04 18:01N 33°46' W 118°13'0 0.0
2018-Feb-04 18:00N 33°46' W 118°13'0 0.0
2018-Feb-04 17:25N 33°46' W 118°13'0 0.0
2018-Feb-04 15:30N 33°46' W 118°13'0 0.0
2018-Feb-04 15:00N 33°46' W 118°13'0 0.0
2018-Feb-04 13:59N 33°46' W 118°13'2 4.0
2018-Feb-04 13:26N 33°44' W 118°12'1 1.3
2018-Feb-04 13:00N 33°45' W 118°12'0 0.3
2018-Feb-04 12:30N 33°44' W 118°12'0 0.0
2018-Feb-04 12:00N 33°44' W 118°12'0 0.0
2018-Feb-04 11:30N 33°44' W 118°12'4 2.7
2018-Feb-04 10:00N 33°44' W 118°17'2 1.9
2018-Feb-04 09:00N 33°46' W 118°16'0 0.0
2018-Feb-04 08:30N 33°46' W 118°16'0 0.0
2018-Feb-04 08:00N 33°46' W 118°16'0 0.0
2018-Feb-04 07:30N 33°46' W 118°16'0 0.0
2018-Feb-04 07:00N 33°46' W 118°16'0 0.1
2018-Feb-04 06:30N 33°46' W 118°16'1 1.6
2018-Feb-04 06:00N 33°46' W 118°15'1 2.8
2018-Feb-04 05:29N 33°46' W 118°13'0 0.0
2018-Feb-04 05:00N 33°46' W 118°13'0 0.0
2018-Feb-04 04:30N 33°46' W 118°13'0 0.0
2018-Feb-04 04:00N 33°46' W 118°13'0 0.0
2018-Feb-04 03:30N 33°46' W 118°13'0 0.0
2018-Feb-04 03:00N 33°46' W 118°13'0 0.0
2018-Feb-04 02:26N 33°46' W 118°13'0 0.0
2018-Feb-04 02:00N 33°46' W 118°13'0 0.0
2018-Feb-04 01:30N 33°46' W 118°13'0 0.0
2018-Feb-04 01:00N 33°46' W 118°13'0 0.0
2018-Feb-04 00:30N 33°46' W 118°13'0 0.0
2018-Feb-04 00:00N 33°46' W 118°13'0 0.3
2018-Feb-03 23:30N 33°46' W 118°13'0 0.1
2018-Feb-03 23:00N 33°46' W 118°13'0 0.4
2018-Feb-03 22:30N 33°45' W 118°13'1 2.7
2018-Feb-03 22:00N 33°44' W 118°12'1 2.6
2018-Feb-03 21:30N 33°43' W 118°11'2 3.5
2018-Feb-03 21:00N 33°44' W 118°13'1 2.2
2018-Feb-03 20:30N 33°45' W 118°13'1 1.4
2018-Feb-03 20:00N 33°45' W 118°13'0 0.2
2018-Feb-03 18:30N 33°46' W 118°13'0 0.0
2018-Feb-03 18:00N 33°46' W 118°13'0 0.0
2018-Feb-03 17:30N 33°46' W 118°13'0 0.0
2018-Feb-03 17:00N 33°46' W 118°13'0 0.0
2018-Feb-03 16:00N 33°46' W 118°13'0 0.0
2018-Feb-03 15:30N 33°46' W 118°13'0 0.0
2018-Feb-03 15:00N 33°46' W 118°13'1 1.9
2018-Feb-03 14:30N 33°46' W 118°14'1 1.2
2018-Feb-03 14:00N 33°46' W 118°13'2 4.5
2018-Feb-03 13:30N 33°44' W 118°12'1 1.7
2018-Feb-03 12:57N 33°44' W 118°11'0 0.8
2018-Feb-03 12:30N 33°44' W 118°12'2 4.6
2018-Feb-03 12:00N 33°46' W 118°13'1 1.6
2018-Feb-03 11:27N 33°46' W 118°14'0 0.0
2018-Feb-03 11:00N 33°46' W 118°14'1 1.9
2018-Feb-03 10:30N 33°46' W 118°13'0 0.0
2018-Feb-03 10:00N 33°46' W 118°13'0 0.0
2018-Feb-03 09:28N 33°46' W 118°13'1 2.2
2018-Feb-03 08:57N 33°45' W 118°12'0 0.1
2018-Feb-03 08:30N 33°45' W 118°12'1 0.5
2018-Feb-03 06:20N 33°46' W 118°13'0 0.0
2018-Feb-03 05:46N 33°46' W 118°13'0 0.0
2018-Feb-03 05:30N 33°46' W 118°13'0 0.0
2018-Feb-03 05:00N 33°46' W 118°13'0 0.0
2018-Feb-03 03:44N 33°46' W 118°13'0 0.0
2018-Feb-03 03:28N 33°46' W 118°13'0 0.2
2018-Feb-03 02:00N 33°45' W 118°13'1 1.7
2018-Feb-03 01:30N 33°45' W 118°13'2 4.0
2018-Feb-03 01:00N 33°43' W 118°11'0 0.6
2018-Feb-03 00:30N 33°44' W 118°11'1 2.1
2018-Feb-03 00:00N 33°44' W 118°12'0 0.3
2018-Feb-02 23:30N 33°44' W 118°11'1 1.7
2018-Feb-02 23:00N 33°44' W 118°11'0 0.7
2018-Feb-02 22:30N 33°44' W 118°11'2 3.1
2018-Feb-02 22:01N 33°44' W 118°13'1 2.5
2018-Feb-02 21:31N 33°46' W 118°13'0 0.0
2018-Feb-02 21:00N 33°46' W 118°13'0 0.0
2018-Feb-02 20:31N 33°46' W 118°13'0 0.0
2018-Feb-02 20:00N 33°46' W 118°13'0 0.0
2018-Feb-02 18:59N 33°46' W 118°13'0 0.0
2018-Feb-02 18:31N 33°46' W 118°13'0 0.0
2018-Feb-02 18:01N 33°46' W 118°13'0 0.0
2018-Feb-02 17:31N 33°46' W 118°13'0 0.0
2018-Feb-02 17:00N 33°46' W 118°13'0 0.0
2018-Feb-02 16:31N 33°46' W 118°13'1 1.4
2018-Feb-02 15:31N 33°45' W 118°12'2 2.2
2018-Feb-02 14:30N 33°46' W 118°14'0 0.8
2018-Feb-02 14:00N 33°46' W 118°14'2 3.5
2018-Feb-02 13:30N 33°45' W 118°13'2 4.2
2018-Feb-02 13:01N 33°44' W 118°11'2 3.7
2018-Feb-02 12:31N 33°44' W 118°13'1 2.5
2018-Feb-02 11:59N 33°45' W 118°13'0 0.0
2018-Feb-02 11:31N 33°45' W 118°13'2 3.0
2018-Feb-02 11:01N 33°46' W 118°15'1 1.4
2018-Feb-02 10:31N 33°46' W 118°16'0 0.0
2018-Feb-02 10:01N 33°46' W 118°16'0 0.0
2018-Feb-02 09:31N 33°46' W 118°16'0 0.1
2018-Feb-02 09:01N 33°46' W 118°16'0 0.2
2018-Feb-02 08:30N 33°46' W 118°16'0 0.2
2018-Feb-02 08:00N 33°46' W 118°16'1 3.0
2018-Feb-02 07:30N 33°45' W 118°17'4 4.2
2018-Feb-02 06:30N 33°44' W 118°12'2 4.3
2018-Feb-02 06:00N 33°46' W 118°13'0 0.0
2018-Feb-02 05:29N 33°46' W 118°13'0 0.0
2018-Feb-02 05:01N 33°46' W 118°13'0 0.0
2018-Feb-02 04:30N 33°46' W 118°13'1 2.3
2018-Feb-02 04:01N 33°46' W 118°14'1 2.1
2018-Feb-02 03:30N 33°46' W 118°16'0 0.6
2018-Feb-02 03:00N 33°46' W 118°16'0 0.0
2018-Feb-02 02:31N 33°46' W 118°16'0 0.7
2018-Feb-02 02:00N 33°45' W 118°16'2 4.9
2018-Feb-02 01:30N 33°43' W 118°16'0 0.6
2018-Feb-02 01:00N 33°43' W 118°16'2 4.5
2018-Feb-02 00:30N 33°46' W 118°17'0 0.8
2018-Feb-02 00:00N 33°45' W 118°16'2 3.6
2018-Feb-01 23:31N 33°43' W 118°16'2 3.1
2018-Feb-01 23:01N 33°43' W 118°14'2 2.4
2018-Feb-01 22:01N 33°44' W 118°12'0 0.0
2018-Feb-01 21:31N 33°44' W 118°12'0 0.2
2018-Feb-01 19:31N 33°45' W 118°12'1 1.5
2018-Feb-01 19:01N 33°44' W 118°12'1 1.2
2018-Feb-01 18:31N 33°44' W 118°12'2 4.9
2018-Feb-01 18:00N 33°46' W 118°13'0 0.0
2018-Feb-01 17:30N 33°46' W 118°13'0 0.0
2018-Feb-01 17:00N 33°46' W 118°13'0 0.6
2018-Feb-01 16:30N 33°46' W 118°13'2 4.1
2018-Feb-01 16:00N 33°46' W 118°16'0 0.1
2018-Feb-01 15:31N 33°46' W 118°16'0 0.0
2018-Feb-01 15:00N 33°46' W 118°16'1 0.4
2018-Feb-01 13:30N 33°46' W 118°17'0 0.0
2018-Feb-01 13:01N 33°46' W 118°17'0 0.0
2018-Feb-01 12:30N 33°46' W 118°17'0 0.0
2018-Feb-01 12:01N 33°46' W 118°17'1 0.7
2018-Feb-01 11:00N 33°46' W 118°16'0 0.1
2018-Feb-01 10:30N 33°46' W 118°16'0 0.0
2018-Feb-01 10:01N 33°46' W 118°16'0 0.0
2018-Feb-01 09:30N 33°46' W 118°16'3 5.1
2018-Feb-01 09:00N 33°43' W 118°17'0 0.9
2018-Feb-01 08:30N 33°43' W 118°16'1 1.3
2018-Feb-01 07:30N 33°44' W 118°15'0 0.0
2018-Feb-01 07:00N 33°44' W 118°15'0 0.0
2018-Feb-01 06:31N 33°44' W 118°15'2 3.8
2018-Feb-01 05:58N 33°45' W 118°13'1 1.7
2018-Feb-01 05:31N 33°46' W 118°13'0 0.0
2018-Feb-01 05:00N 33°46' W 118°13'0 0.0
2018-Feb-01 04:30N 33°46' W 118°13'0 0.0
2018-Feb-01 04:01N 33°46' W 118°13'0 0.0
2018-Feb-01 03:01N 33°46' W 118°13'0 0.0
2018-Feb-01 02:29N 33°46' W 118°13'0 0.0
2018-Feb-01 02:00N 33°46' W 118°13'1 2.3
2018-Feb-01 01:31N 33°46' W 118°14'2 3.5
2018-Feb-01 01:01N 33°45' W 118°16'0 0.3
2018-Feb-01 00:31N 33°45' W 118°16'1 2.1
2018-Feb-01 00:00N 33°44' W 118°17'2 1.9
2018-Jan-31 23:00N 33°46' W 118°16'0 0.4
2018-Jan-31 22:30N 33°46' W 118°16'0 0.2
2018-Jan-31 21:00N 33°46' W 118°15'2 3.3
2018-Jan-31 20:29N 33°46' W 118°13'0 0.4
2018-Jan-31 20:00N 33°45' W 118°13'0 0.0
2018-Jan-31 19:30N 33°45' W 118°13'0 0.0
2018-Jan-31 19:00N 33°45' W 118°13'0 0.1
2018-Jan-31 18:30N 33°45' W 118°13'0 1.0
2018-Jan-31 18:00N 33°45' W 118°13'2 3.2
2018-Jan-31 17:30N 33°44' W 118°12'3 5.4
2018-Jan-31 16:58N 33°41' W 118°11'1 2.4
2018-Jan-31 16:23N 33°40' W 118°10'1 1.5
2018-Jan-31 16:00N 33°41' W 118°10'3 6.0
2018-Jan-31 15:30N 33°43' W 118°11'3 6.1
2018-Jan-31 15:00N 33°45' W 118°14'0 0.2
2018-Jan-31 14:30N 33°45' W 118°14'1 0.3
2018-Jan-31 11:39N 33°45' W 118°13'1 8.9
2018-Jan-31 11:30N 33°44' W 118°13'1 2.3
2018-Jan-31 11:00N 33°43' W 118°14'3 5.2
2018-Jan-31 10:30N 33°45' W 118°16'1 1.5
2018-Jan-31 10:00N 33°46' W 118°16'0 0.0
2018-Jan-31 09:30N 33°46' W 118°16'0 0.0
2018-Jan-31 09:00N 33°46' W 118°16'0 0.0
2018-Jan-31 08:30N 33°46' W 118°16'0 0.0
2018-Jan-31 08:00N 33°46' W 118°16'0 0.0
2018-Jan-31 07:30N 33°46' W 118°16'2 4.0
2018-Jan-31 07:00N 33°46' W 118°13'0 0.1
2018-Jan-31 04:33N 33°46' W 118°13'0 0.2
2018-Jan-31 04:02N 33°46' W 118°13'0 7.2
2018-Jan-31 04:00N 33°46' W 118°13'2 4.0
2018-Jan-31 03:30N 33°45' W 118°16'3 3.7
2018-Jan-31 02:49N 33°44' W 118°13'2 5.1
2018-Jan-31 02:30N 33°45' W 118°14'2 3.4
2018-Jan-31 01:59N 33°44' W 118°13'3 5.8
2018-Jan-31 01:30N 33°45' W 118°16'1 1.1
2018-Jan-31 01:00N 33°45' W 118°17'1 0.9
2018-Jan-31 00:00N 33°46' W 118°16'0 0.9
2018-Jan-30 23:30N 33°45' W 118°16'1 2.3
2018-Jan-30 23:00N 33°45' W 118°17'2 4.7
2018-Jan-30 22:30N 33°43' W 118°15'2 1.8
2018-Jan-30 21:30N 33°44' W 118°16'0 0.0
2018-Jan-30 20:59N 33°44' W 118°16'0 0.0
2018-Jan-30 20:30N 33°44' W 118°16'0 0.0
2018-Jan-30 20:00N 33°44' W 118°16'0 0.0
2018-Jan-30 19:30N 33°44' W 118°16'0 0.5
2018-Jan-30 19:00N 33°44' W 118°16'3 6.3
2018-Jan-30 18:30N 33°45' W 118°13'1 1.2
2018-Jan-30 18:00N 33°46' W 118°13'1 1.1
2018-Jan-30 17:30N 33°46' W 118°14'2 3.5
2018-Jan-30 17:00N 33°46' W 118°16'0 0.2
2018-Jan-30 16:30N 33°46' W 118°16'0 0.0
2018-Jan-30 16:00N 33°46' W 118°16'0 0.0
2018-Jan-30 15:30N 33°46' W 118°16'0 0.0
2018-Jan-30 15:00N 33°46' W 118°16'0 0.0
2018-Jan-30 14:30N 33°46' W 118°16'2 2.0
2018-Jan-30 13:29N 33°44' W 118°16'1 2.5
2018-Jan-30 13:00N 33°45' W 118°16'1 1.8
2018-Jan-30 12:30N 33°46' W 118°16'0 0.5
2018-Jan-30 12:00N 33°46' W 118°17'0 0.0
2018-Jan-30 11:30N 33°46' W 118°17'0 0.0
2018-Jan-30 10:30N 33°46' W 118°17'3 2.6
2018-Jan-30 09:24N 33°43' W 118°16'1 3.3
2018-Jan-30 09:00N 33°44' W 118°15'2 3.2
2018-Jan-30 08:24N 33°45' W 118°13'1 1.8
2018-Jan-30 08:01N 33°46' W 118°13'0 0.0
2018-Jan-30 07:29N 33°46' W 118°13'0 0.0
2018-Jan-30 07:00N 33°46' W 118°13'0 0.0
2018-Jan-30 06:31N 33°46' W 118°13'0 0.0
2018-Jan-30 06:00N 33°46' W 118°13'0 0.0
2018-Jan-30 05:30N 33°46' W 118°13'0 0.0
2018-Jan-30 05:01N 33°46' W 118°13'1 2.4
2018-Jan-30 04:31N 33°46' W 118°15'1 1.9
2018-Jan-30 04:00N 33°46' W 118°16'0 0.0
2018-Jan-30 03:31N 33°46' W 118°16'0 0.0
2018-Jan-30 03:00N 33°46' W 118°16'0 0.0
2018-Jan-30 02:30N 33°46' W 118°16'0 0.0
2018-Jan-30 02:00N 33°46' W 118°16'1 1.6
2018-Jan-30 01:30N 33°45' W 118°16'0 0.8
2018-Jan-30 01:01N 33°46' W 118°17'1 1.3
2018-Jan-30 00:31N 33°45' W 118°16'1 2.4
2018-Jan-30 00:00N 33°44' W 118°16'2 3.3
2018-Jan-29 23:31N 33°43' W 118°15'1 1.6
2018-Jan-29 23:00N 33°43' W 118°14'2 4.4
2018-Jan-29 22:31N 33°44' W 118°12'0 0.0
2018-Jan-29 22:01N 33°44' W 118°12'1 1.0
2018-Jan-29 21:30N 33°44' W 118°12'1 1.4
2018-Jan-29 21:00N 33°44' W 118°12'1 1.6
2018-Jan-29 20:31N 33°44' W 118°12'0 0.0
2018-Jan-29 20:01N 33°44' W 118°12'0 0.6
2018-Jan-29 19:30N 33°45' W 118°12'0 0.1
2018-Jan-29 19:01N 33°45' W 118°12'1 2.6
2018-Jan-29 18:30N 33°46' W 118°13'0 0.3
2018-Jan-29 18:00N 33°46' W 118°13'0 0.0
2018-Jan-29 17:30N 33°46' W 118°13'0 0.0
2018-Jan-29 17:00N 33°46' W 118°13'0 0.0
2018-Jan-29 16:30N 33°46' W 118°13'0 0.0
2018-Jan-29 16:00N 33°46' W 118°13'0 0.0
2018-Jan-29 15:31N 33°46' W 118°13'1 2.6
2018-Jan-29 15:01N 33°44' W 118°13'1 2.6
2018-Jan-29 14:30N 33°46' W 118°13'1 2.9
2018-Jan-29 14:01N 33°44' W 118°12'0 0.3
2018-Jan-29 13:30N 33°44' W 118°12'0 0.1
2018-Jan-29 13:01N 33°44' W 118°12'0 0.3
2018-Jan-29 12:30N 33°44' W 118°12'0 0.0
2018-Jan-29 11:51N 33°44' W 118°12'0 0.5
2018-Jan-29 11:03N 33°45' W 118°12'0 2.2
2018-Jan-29 10:58N 33°45' W 118°12'2 3.5
2018-Jan-29 10:27N 33°44' W 118°10'2 5.2
2018-Jan-29 09:59N 33°45' W 118°13'1 1.7
2018-Jan-29 09:31N 33°46' W 118°13'0 0.0
2018-Jan-29 09:01N 33°46' W 118°13'0 0.1
2018-Jan-29 08:31N 33°46' W 118°13'0 0.1
2018-Jan-29 08:00N 33°46' W 118°13'0 0.0
2018-Jan-29 07:31N 33°46' W 118°13'0 0.0
2018-Jan-29 07:00N 33°46' W 118°13'0 0.0
2018-Jan-29 06:29N 33°46' W 118°13'0 0.0
2018-Jan-29 06:01N 33°46' W 118°13'0 0.0
2018-Jan-29 05:30N 33°46' W 118°13'1 2.4
2018-Jan-29 05:01N 33°46' W 118°15'2 3.1
2018-Jan-29 04:30N 33°45' W 118°16'3 4.3
2018-Jan-29 03:55N 33°44' W 118°14'3 6.3
2018-Jan-29 03:30N 33°46' W 118°14'0 0.3
2018-Jan-29 03:01N 33°46' W 118°14'0 0.0
2018-Jan-29 02:31N 33°46' W 118°14'0 0.0
2018-Jan-29 02:01N 33°46' W 118°14'2 4.6
2018-Jan-29 01:29N 33°44' W 118°12'1 1.5
2018-Jan-29 01:01N 33°44' W 118°11'0 0.1
2018-Jan-29 00:31N 33°44' W 118°11'1 2.1
2018-Jan-29 00:01N 33°45' W 118°12'0 0.4
2018-Jan-28 23:30N 33°45' W 118°12'2 4.6
2018-Jan-28 23:00N 33°43' W 118°14'2 4.9
2018-Jan-28 22:31N 33°45' W 118°16'1 2.3
2018-Jan-28 22:00N 33°46' W 118°16'0 0.5
2018-Jan-28 21:31N 33°46' W 118°16'0 0.0
2018-Jan-28 21:01N 33°46' W 118°16'1 2.4
2018-Jan-28 20:31N 33°45' W 118°16'3 5.2
2018-Jan-28 20:01N 33°43' W 118°14'2 4.3
2018-Jan-28 19:30N 33°45' W 118°12'0 0.1
2018-Jan-28 19:00N 33°45' W 118°12'1 2.7
2018-Jan-28 18:30N 33°46' W 118°13'0 0.1
2018-Jan-28 18:00N 33°46' W 118°13'0 0.0
2018-Jan-28 17:31N 33°46' W 118°13'0 0.0
2018-Jan-28 17:01N 33°46' W 118°13'0 0.0
2018-Jan-28 16:30N 33°46' W 118°13'0 0.0
2018-Jan-28 16:01N 33°46' W 118°13'0 0.0
2018-Jan-28 15:31N 33°46' W 118°13'0 0.0
2018-Jan-28 15:00N 33°46' W 118°13'0 0.0
2018-Jan-28 14:29N 33°46' W 118°13'2 4.5
2018-Jan-28 14:00N 33°45' W 118°16'1 1.4
2018-Jan-28 13:30N 33°45' W 118°16'0 0.9
2018-Jan-28 13:00N 33°44' W 118°17'2 4.4
2018-Jan-28 12:30N 33°43' W 118°15'3 6.1
2018-Jan-28 11:59N 33°46' W 118°16'0 0.0
2018-Jan-28 11:30N 33°46' W 118°16'0 0.0
2018-Jan-28 10:58N 33°46' W 118°16'0 0.0
2018-Jan-28 10:30N 33°46' W 118°16'0 0.1
2018-Jan-28 10:00N 33°46' W 118°16'0 0.1
2018-Jan-28 09:30N 33°46' W 118°16'0 0.0
2018-Jan-28 09:00N 33°46' W 118°16'0 0.0
2018-Jan-28 08:30N 33°46' W 118°16'0 0.0
2018-Jan-28 08:00N 33°46' W 118°16'0 0.0
2018-Jan-28 07:30N 33°46' W 118°16'0 0.0
2018-Jan-28 07:00N 33°46' W 118°16'3 2.9
2018-Jan-28 06:03N 33°44' W 118°13'0 0.0
2018-Jan-28 05:56N 33°44' W 118°13'2 3.2
2018-Jan-28 05:28N 33°46' W 118°13'0 0.0
2018-Jan-28 05:00N 33°46' W 118°13'0 0.0
2018-Jan-28 04:30N 33°46' W 118°13'0 0.0
2018-Jan-28 04:00N 33°46' W 118°13'0 0.0
2018-Jan-28 03:30N 33°46' W 118°13'1 2.6
2018-Jan-28 03:00N 33°44' W 118°13'3 5.8
2018-Jan-28 02:30N 33°44' W 118°16'1 2.5
2018-Jan-28 02:00N 33°45' W 118°16'1 2.1
2018-Jan-28 01:30N 33°46' W 118°16'0 0.1
2018-Jan-28 01:00N 33°46' W 118°16'0 0.0
2018-Jan-28 00:30N 33°46' W 118°16'0 0.0
2018-Jan-28 00:00N 33°46' W 118°16'0 0.1
2018-Jan-27 23:30N 33°46' W 118°16'0 0.0
2018-Jan-27 23:00N 33°46' W 118°16'0 0.0
2018-Jan-27 22:30N 33°46' W 118°16'1 2.1
2018-Jan-27 22:00N 33°45' W 118°16'0 0.7
2018-Jan-27 21:30N 33°45' W 118°16'0 0.0
2018-Jan-27 21:00N 33°45' W 118°16'0 0.0
2018-Jan-27 20:30N 33°45' W 118°16'3 5.5
2018-Jan-27 20:00N 33°43' W 118°14'2 3.3
2018-Jan-27 19:30N 33°44' W 118°13'3 5.3
2018-Jan-27 19:00N 33°43' W 118°16'3 5.1
2018-Jan-27 18:29N 33°46' W 118°16'1 2.7
2018-Jan-27 18:00N 33°46' W 118°14'1 1.8
2018-Jan-27 17:30N 33°46' W 118°13'0 0.0
2018-Jan-27 16:59N 33°46' W 118°13'0 0.0
2018-Jan-27 16:30N 33°46' W 118°13'0 0.0
2018-Jan-27 16:00N 33°46' W 118°13'0 0.0
2018-Jan-27 15:30N 33°46' W 118°13'0 0.0
2018-Jan-27 15:00N 33°46' W 118°13'2 4.0
2018-Jan-27 14:29N 33°46' W 118°16'1 1.7
2018-Jan-27 14:01N 33°45' W 118°16'1 1.4
2018-Jan-27 13:30N 33°46' W 118°17'1 1.0
2018-Jan-27 13:00N 33°45' W 118°16'0 0.8
2018-Jan-27 12:30N 33°46' W 118°17'1 1.5
2018-Jan-27 12:00N 33°46' W 118°16'0 0.0
2018-Jan-27 11:30N 33°46' W 118°16'0 0.0
2018-Jan-27 11:00N 33°46' W 118°16'0 0.0
2018-Jan-27 10:30N 33°46' W 118°16'0 0.1
2018-Jan-27 10:00N 33°46' W 118°16'0 0.2
2018-Jan-27 09:30N 33°46' W 118°16'1 1.4
2018-Jan-27 09:00N 33°45' W 118°16'3 4.9
2018-Jan-27 08:19N 33°42' W 118°14'0 0.6
2018-Jan-27 07:58N 33°42' W 118°14'3 6.5
2018-Jan-27 07:30N 33°45' W 118°16'1 2.4
2018-Jan-27 07:00N 33°46' W 118°16'0 0.3
2018-Jan-27 06:30N 33°46' W 118°16'1 2.6
2018-Jan-27 06:00N 33°46' W 118°14'1 1.8
2018-Jan-27 05:30N 33°46' W 118°13'0 0.0
2018-Jan-27 05:00N 33°46' W 118°13'0 0.0
2018-Jan-27 04:29N 33°46' W 118°13'0 0.0
2018-Jan-27 03:46N 33°46' W 118°13'2 4.9
2018-Jan-27 03:20N 33°46' W 118°16'1 2.8
2018-Jan-27 02:55N 33°45' W 118°16'2 5.7
2018-Jan-27 02:30N 33°43' W 118°15'3 4.7
2018-Jan-27 01:52N 33°45' W 118°12'0 0.0
2018-Jan-27 01:30N 33°45' W 118°12'0 0.7
2018-Jan-27 01:00N 33°44' W 118°12'0 0.0
2018-Jan-27 00:30N 33°44' W 118°12'0 0.0
2018-Jan-27 00:00N 33°44' W 118°12'0 0.5
2018-Jan-26 23:30N 33°45' W 118°12'1 1.2
2018-Jan-26 23:00N 33°44' W 118°13'2 3.7
2018-Jan-26 22:30N 33°46' W 118°13'1 1.3
2018-Jan-26 22:00N 33°46' W 118°13'0 0.0
2018-Jan-26 21:30N 33°46' W 118°13'1 1.3
2018-Jan-26 21:00N 33°45' W 118°13'1 1.9
2018-Jan-26 20:28N 33°45' W 118°12'0 0.3
2018-Jan-26 20:00N 33°45' W 118°12'0 0.3
2018-Jan-26 19:30N 33°45' W 118°12'0 0.0
2018-Jan-26 18:57N 33°45' W 118°12'1 2.2
2018-Jan-26 18:30N 33°45' W 118°13'1 1.5
2018-Jan-26 18:00N 33°46' W 118°13'0 0.0
2018-Jan-26 17:30N 33°46' W 118°13'0 0.0
2018-Jan-26 17:00N 33°46' W 118°13'0 0.0
2018-Jan-26 16:30N 33°46' W 118°13'0 0.9
2018-Jan-26 15:58N 33°45' W 118°13'0 0.0
2018-Jan-26 15:30N 33°45' W 118°13'0 0.0
2018-Jan-26 14:59N 33°45' W 118°13'0 0.0
2018-Jan-26 14:08N 33°45' W 118°13'0 0.0
2018-Jan-26 13:48N 33°45' W 118°13'0 0.0
2018-Jan-26 12:30N 33°45' W 118°13'0 0.0
2018-Jan-26 11:55N 33°45' W 118°13'0 0.0
2018-Jan-26 11:29N 33°45' W 118°13'0 0.0
2018-Jan-26 10:30N 33°45' W 118°13'0 0.0
2018-Jan-26 09:59N 33°45' W 118°13'0 0.0
2018-Jan-26 09:27N 33°45' W 118°13'1 0.5
2018-Jan-26 08:23N 33°45' W 118°13'1 0.9
2018-Jan-26 07:42N 33°44' W 118°12'1 6.8
2018-Jan-26 07:30N 33°46' W 118°13'0 0.1
2018-Jan-26 07:00N 33°46' W 118°13'  
Track history (hours):
 
Tides and Currents Weather Stations Pressure Air Temp Water Temp Dewpoint Dewpoint Depression Visibility Wind Speed Wind Dir Waves Ship Positions

Campbell Foss

Owner: Foss Maritime Co., Seattle, WA. More information available from US FCC via Universal Licensing System and Coast Guard Vessel Documentation Center.

Last reported at 2018-Feb-04 18:01 UTC. Time now 2018-Feb-21 17:33 UTC.
Position N 33°46' W 118°13'.
Warning: this ship's position is 16 days out of date.

Length 23 m; draft 16 m.

Type: Tug. MMSI: 367076360.

Date/timePositionNaut miles runAvg speedWind from/ knotsBaromVisibWave heightAir tempDewpointWater temp
2018-Feb-04 18:01N 33°46' W 118°13'0 0.0
2018-Feb-04 18:00N 33°46' W 118°13'0 0.0
2018-Feb-04 17:25N 33°46' W 118°13'0 0.0
2018-Feb-04 15:30N 33°46' W 118°13'0 0.0
2018-Feb-04 15:00N 33°46' W 118°13'0 0.0
2018-Feb-04 13:59N 33°46' W 118°13'2 4.0
2018-Feb-04 13:26N 33°44' W 118°12'1 1.3
2018-Feb-04 13:00N 33°45' W 118°12'0 0.3
2018-Feb-04 12:30N 33°44' W 118°12'0 0.0
2018-Feb-04 12:00N 33°44' W 118°12'0 0.0
2018-Feb-04 11:30N 33°44' W 118°12'4 2.7
2018-Feb-04 10:00N 33°44' W 118°17'2 1.9
2018-Feb-04 09:00N 33°46' W 118°16'0 0.0
2018-Feb-04 08:30N 33°46' W 118°16'0 0.0
2018-Feb-04 08:00N 33°46' W 118°16'0 0.0
2018-Feb-04 07:30N 33°46' W 118°16'0 0.0
2018-Feb-04 07:00N 33°46' W 118°16'0 0.1
2018-Feb-04 06:30N 33°46' W 118°16'1 1.6
2018-Feb-04 06:00N 33°46' W 118°15'1 2.8
2018-Feb-04 05:29N 33°46' W 118°13'0 0.0
2018-Feb-04 05:00N 33°46' W 118°13'0 0.0
2018-Feb-04 04:30N 33°46' W 118°13'0 0.0
2018-Feb-04 04:00N 33°46' W 118°13'0 0.0
2018-Feb-04 03:30N 33°46' W 118°13'0 0.0
2018-Feb-04 03:00N 33°46' W 118°13'0 0.0
2018-Feb-04 02:26N 33°46' W 118°13'0 0.0
2018-Feb-04 02:00N 33°46' W 118°13'0 0.0
2018-Feb-04 01:30N 33°46' W 118°13'0 0.0
2018-Feb-04 01:00N 33°46' W 118°13'0 0.0
2018-Feb-04 00:30N 33°46' W 118°13'0 0.0
2018-Feb-04 00:00N 33°46' W 118°13'0 0.3
2018-Feb-03 23:30N 33°46' W 118°13'0 0.1
2018-Feb-03 23:00N 33°46' W 118°13'0 0.4
2018-Feb-03 22:30N 33°45' W 118°13'1 2.7
2018-Feb-03 22:00N 33°44' W 118°12'1 2.6
2018-Feb-03 21:30N 33°43' W 118°11'2 3.5
2018-Feb-03 21:00N 33°44' W 118°13'1 2.2
2018-Feb-03 20:30N 33°45' W 118°13'1 1.4
2018-Feb-03 20:00N 33°45' W 118°13'0 0.2
2018-Feb-03 18:30N 33°46' W 118°13'0 0.0
2018-Feb-03 18:00N 33°46' W 118°13'0 0.0
2018-Feb-03 17:30N 33°46' W 118°13'0 0.0
2018-Feb-03 17:00N 33°46' W 118°13'0 0.0
2018-Feb-03 16:00N 33°46' W 118°13'0 0.0
2018-Feb-03 15:30N 33°46' W 118°13'0 0.0
2018-Feb-03 15:00N 33°46' W 118°13'1 1.9
2018-Feb-03 14:30N 33°46' W 118°14'1 1.2
2018-Feb-03 14:00N 33°46' W 118°13'2 4.5
2018-Feb-03 13:30N 33°44' W 118°12'1 1.7
2018-Feb-03 12:57N 33°44' W 118°11'0 0.8
2018-Feb-03 12:30N 33°44' W 118°12'2 4.6
2018-Feb-03 12:00N 33°46' W 118°13'1 1.6
2018-Feb-03 11:27N 33°46' W 118°14'0 0.0
2018-Feb-03 11:00N 33°46' W 118°14'1 1.9
2018-Feb-03 10:30N 33°46' W 118°13'0 0.0
2018-Feb-03 10:00N 33°46' W 118°13'0 0.0
2018-Feb-03 09:28N 33°46' W 118°13'1 2.2
2018-Feb-03 08:57N 33°45' W 118°12'0 0.1
2018-Feb-03 08:30N 33°45' W 118°12'1 0.5
2018-Feb-03 06:20N 33°46' W 118°13'0 0.0
2018-Feb-03 05:46N 33°46' W 118°13'0 0.0
2018-Feb-03 05:30N 33°46' W 118°13'0 0.0
2018-Feb-03 05:00N 33°46' W 118°13'0 0.0
2018-Feb-03 03:44N 33°46' W 118°13'0 0.0
2018-Feb-03 03:28N 33°46' W 118°13'0 0.2
2018-Feb-03 02:00N 33°45' W 118°13'1 1.7
2018-Feb-03 01:30N 33°45' W 118°13'2 4.0
2018-Feb-03 01:00N 33°43' W 118°11'0 0.6
2018-Feb-03 00:30N 33°44' W 118°11'1 2.1
2018-Feb-03 00:00N 33°44' W 118°12'0 0.3
2018-Feb-02 23:30N 33°44' W 118°11'1 1.7
2018-Feb-02 23:00N 33°44' W 118°11'0 0.7
2018-Feb-02 22:30N 33°44' W 118°11'2 3.1
2018-Feb-02 22:01N 33°44' W 118°13'1 2.5
2018-Feb-02 21:31N 33°46' W 118°13'0 0.0
2018-Feb-02 21:00N 33°46' W 118°13'0 0.0
2018-Feb-02 20:31N 33°46' W 118°13'0 0.0
2018-Feb-02 20:00N 33°46' W 118°13'0 0.0
2018-Feb-02 18:59N 33°46' W 118°13'0 0.0
2018-Feb-02 18:31N 33°46' W 118°13'0 0.0
2018-Feb-02 18:01N 33°46' W 118°13'0 0.0
2018-Feb-02 17:31N 33°46' W 118°13'0 0.0
2018-Feb-02 17:00N 33°46' W 118°13'0 0.0
2018-Feb-02 16:31N 33°46' W 118°13'1 1.4
2018-Feb-02 15:31N 33°45' W 118°12'2 2.2
2018-Feb-02 14:30N 33°46' W 118°14'0 0.8
2018-Feb-02 14:00N 33°46' W 118°14'2 3.5
2018-Feb-02 13:30N 33°45' W 118°13'2 4.2
2018-Feb-02 13:01N 33°44' W 118°11'2 3.7
2018-Feb-02 12:31N 33°44' W 118°13'1 2.5
2018-Feb-02 11:59N 33°45' W 118°13'0 0.0
2018-Feb-02 11:31N 33°45' W 118°13'2 3.0
2018-Feb-02 11:01N 33°46' W 118°15'1 1.4
2018-Feb-02 10:31N 33°46' W 118°16'0 0.0
2018-Feb-02 10:01N 33°46' W 118°16'0 0.0
2018-Feb-02 09:31N 33°46' W 118°16'0 0.1
2018-Feb-02 09:01N 33°46' W 118°16'0 0.2
2018-Feb-02 08:30N 33°46' W 118°16'0 0.2
2018-Feb-02 08:00N 33°46' W 118°16'1 3.0
2018-Feb-02 07:30N 33°45' W 118°17'4 4.2
2018-Feb-02 06:30N 33°44' W 118°12'2 4.3
2018-Feb-02 06:00N 33°46' W 118°13'0 0.0
2018-Feb-02 05:29N 33°46' W 118°13'0 0.0
2018-Feb-02 05:01N 33°46' W 118°13'0 0.0
2018-Feb-02 04:30N 33°46' W 118°13'1 2.3
2018-Feb-02 04:01N 33°46' W 118°14'1 2.1
2018-Feb-02 03:30N 33°46' W 118°16'0 0.6
2018-Feb-02 03:00N 33°46' W 118°16'0 0.0
2018-Feb-02 02:31N 33°46' W 118°16'0 0.7
2018-Feb-02 02:00N 33°45' W 118°16'2 4.9
2018-Feb-02 01:30N 33°43' W 118°16'0 0.6
2018-Feb-02 01:00N 33°43' W 118°16'2 4.5
2018-Feb-02 00:30N 33°46' W 118°17'0 0.8
2018-Feb-02 00:00N 33°45' W 118°16'2 3.6
2018-Feb-01 23:31N 33°43' W 118°16'2 3.1
2018-Feb-01 23:01N 33°43' W 118°14'2 2.4
2018-Feb-01 22:01N 33°44' W 118°12'0 0.0
2018-Feb-01 21:31N 33°44' W 118°12'0 0.2
2018-Feb-01 19:31N 33°45' W 118°12'1 1.5
2018-Feb-01 19:01N 33°44' W 118°12'1 1.2
2018-Feb-01 18:31N 33°44' W 118°12'2 4.9
2018-Feb-01 18:00N 33°46' W 118°13'0 0.0
2018-Feb-01 17:30N 33°46' W 118°13'0 0.0
2018-Feb-01 17:00N 33°46' W 118°13'0 0.6
2018-Feb-01 16:30N 33°46' W 118°13'2 4.1
2018-Feb-01 16:00N 33°46' W 118°16'0 0.1
2018-Feb-01 15:31N 33°46' W 118°16'0 0.0
2018-Feb-01 15:00N 33°46' W 118°16'1 0.4
2018-Feb-01 13:30N 33°46' W 118°17'0 0.0
2018-Feb-01 13:01N 33°46' W 118°17'0 0.0
2018-Feb-01 12:30N 33°46' W 118°17'0 0.0
2018-Feb-01 12:01N 33°46' W 118°17'1 0.7
2018-Feb-01 11:00N 33°46' W 118°16'0 0.1
2018-Feb-01 10:30N 33°46' W 118°16'0 0.0
2018-Feb-01 10:01N 33°46' W 118°16'0 0.0
2018-Feb-01 09:30N 33°46' W 118°16'3 5.1
2018-Feb-01 09:00N 33°43' W 118°17'0 0.9
2018-Feb-01 08:30N 33°43' W 118°16'1 1.3
2018-Feb-01 07:30N 33°44' W 118°15'0 0.0
2018-Feb-01 07:00N 33°44' W 118°15'0 0.0
2018-Feb-01 06:31N 33°44' W 118°15'2 3.8
2018-Feb-01 05:58N 33°45' W 118°13'1 1.7
2018-Feb-01 05:31N 33°46' W 118°13'0 0.0
2018-Feb-01 05:00N 33°46' W 118°13'0 0.0
2018-Feb-01 04:30N 33°46' W 118°13'0 0.0
2018-Feb-01 04:01N 33°46' W 118°13'0 0.0
2018-Feb-01 03:01N 33°46' W 118°13'0 0.0
2018-Feb-01 02:29N 33°46' W 118°13'0 0.0
2018-Feb-01 02:00N 33°46' W 118°13'1 2.3
2018-Feb-01 01:31N 33°46' W 118°14'2 3.5
2018-Feb-01 01:01N 33°45' W 118°16'0 0.3
2018-Feb-01 00:31N 33°45' W 118°16'1 2.1
2018-Feb-01 00:00N 33°44' W 118°17'2 1.9
2018-Jan-31 23:00N 33°46' W 118°16'0 0.4
2018-Jan-31 22:30N 33°46' W 118°16'0 0.2
2018-Jan-31 21:00N 33°46' W 118°15'2 3.3
2018-Jan-31 20:29N 33°46' W 118°13'0 0.4
2018-Jan-31 20:00N 33°45' W 118°13'0 0.0
2018-Jan-31 19:30N 33°45' W 118°13'0 0.0
2018-Jan-31 19:00N 33°45' W 118°13'0 0.1
2018-Jan-31 18:30N 33°45' W 118°13'0 1.0
2018-Jan-31 18:00N 33°45' W 118°13'2 3.2
2018-Jan-31 17:30N 33°44' W 118°12'3 5.4
2018-Jan-31 16:58N 33°41' W 118°11'1 2.4
2018-Jan-31 16:23N 33°40' W 118°10'1 1.5
2018-Jan-31 16:00N 33°41' W 118°10'3 6.0
2018-Jan-31 15:30N 33°43' W 118°11'3 6.1
2018-Jan-31 15:00N 33°45' W 118°14'0 0.2
2018-Jan-31 14:30N 33°45' W 118°14'1 0.3
2018-Jan-31 11:39N 33°45' W 118°13'1 8.9
2018-Jan-31 11:30N 33°44' W 118°13'1 2.3
2018-Jan-31 11:00N 33°43' W 118°14'3 5.2
2018-Jan-31 10:30N 33°45' W 118°16'1 1.5
2018-Jan-31 10:00N 33°46' W 118°16'0 0.0
2018-Jan-31 09:30N 33°46' W 118°16'0 0.0
2018-Jan-31 09:00N 33°46' W 118°16'0 0.0
2018-Jan-31 08:30N 33°46' W 118°16'0 0.0
2018-Jan-31 08:00N 33°46' W 118°16'0 0.0
2018-Jan-31 07:30N 33°46' W 118°16'2 4.0
2018-Jan-31 07:00N 33°46' W 118°13'0 0.1
2018-Jan-31 04:33N 33°46' W 118°13'0 0.2
2018-Jan-31 04:02N 33°46' W 118°13'0 7.2
2018-Jan-31 04:00N 33°46' W 118°13'2 4.0
2018-Jan-31 03:30N 33°45' W 118°16'3 3.7
2018-Jan-31 02:49N 33°44' W 118°13'2 5.1
2018-Jan-31 02:30N 33°45' W 118°14'2 3.4
2018-Jan-31 01:59N 33°44' W 118°13'3 5.8
2018-Jan-31 01:30N 33°45' W 118°16'1 1.1
2018-Jan-31 01:00N 33°45' W 118°17'1 0.9
2018-Jan-31 00:00N 33°46' W 118°16'0 0.9
2018-Jan-30 23:30N 33°45' W 118°16'1 2.3
2018-Jan-30 23:00N 33°45' W 118°17'2 4.7
2018-Jan-30 22:30N 33°43' W 118°15'2 1.8
2018-Jan-30 21:30N 33°44' W 118°16'0 0.0
2018-Jan-30 20:59N 33°44' W 118°16'0 0.0
2018-Jan-30 20:30N 33°44' W 118°16'0 0.0
2018-Jan-30 20:00N 33°44' W 118°16'0 0.0
2018-Jan-30 19:30N 33°44' W 118°16'0 0.5
2018-Jan-30 19:00N 33°44' W 118°16'3 6.3
2018-Jan-30 18:30N 33°45' W 118°13'1 1.2
2018-Jan-30 18:00N 33°46' W 118°13'1 1.1
2018-Jan-30 17:30N 33°46' W 118°14'2 3.5
2018-Jan-30 17:00N 33°46' W 118°16'0 0.2
2018-Jan-30 16:30N 33°46' W 118°16'0 0.0
2018-Jan-30 16:00N 33°46' W 118°16'0 0.0
2018-Jan-30 15:30N 33°46' W 118°16'0 0.0
2018-Jan-30 15:00N 33°46' W 118°16'0 0.0
2018-Jan-30 14:30N 33°46' W 118°16'2 2.0
2018-Jan-30 13:29N 33°44' W 118°16'1 2.5
2018-Jan-30 13:00N 33°45' W 118°16'1 1.8
2018-Jan-30 12:30N 33°46' W 118°16'0 0.5
2018-Jan-30 12:00N 33°46' W 118°17'0 0.0
2018-Jan-30 11:30N 33°46' W 118°17'0 0.0
2018-Jan-30 10:30N 33°46' W 118°17'3 2.6
2018-Jan-30 09:24N 33°43' W 118°16'1 3.3
2018-Jan-30 09:00N 33°44' W 118°15'2 3.2
2018-Jan-30 08:24N 33°45' W 118°13'1 1.8
2018-Jan-30 08:01N 33°46' W 118°13'0 0.0
2018-Jan-30 07:29N 33°46' W 118°13'0 0.0
2018-Jan-30 07:00N 33°46' W 118°13'0 0.0
2018-Jan-30 06:31N 33°46' W 118°13'0 0.0
2018-Jan-30 06:00N 33°46' W 118°13'0 0.0
2018-Jan-30 05:30N 33°46' W 118°13'0 0.0
2018-Jan-30 05:01N 33°46' W 118°13'1 2.4
2018-Jan-30 04:31N 33°46' W 118°15'1 1.9
2018-Jan-30 04:00N 33°46' W 118°16'0 0.0
2018-Jan-30 03:31N 33°46' W 118°16'0 0.0
2018-Jan-30 03:00N 33°46' W 118°16'0 0.0
2018-Jan-30 02:30N 33°46' W 118°16'0 0.0
2018-Jan-30 02:00N 33°46' W 118°16'1 1.6
2018-Jan-30 01:30N 33°45' W 118°16'0 0.8
2018-Jan-30 01:01N 33°46' W 118°17'1 1.3
2018-Jan-30 00:31N 33°45' W 118°16'1 2.4
2018-Jan-30 00:00N 33°44' W 118°16'2 3.3
2018-Jan-29 23:31N 33°43' W 118°15'1 1.6
2018-Jan-29 23:00N 33°43' W 118°14'2 4.4
2018-Jan-29 22:31N 33°44' W 118°12'0 0.0
2018-Jan-29 22:01N 33°44' W 118°12'1 1.0
2018-Jan-29 21:30N 33°44' W 118°12'1 1.4
2018-Jan-29 21:00N 33°44' W 118°12'1 1.6
2018-Jan-29 20:31N 33°44' W 118°12'0 0.0
2018-Jan-29 20:01N 33°44' W 118°12'0 0.6
2018-Jan-29 19:30N 33°45' W 118°12'0 0.1
2018-Jan-29 19:01N 33°45' W 118°12'1 2.6
2018-Jan-29 18:30N 33°46' W 118°13'0 0.3
2018-Jan-29 18:00N 33°46' W 118°13'0 0.0
2018-Jan-29 17:30N 33°46' W 118°13'0 0.0
2018-Jan-29 17:00N 33°46' W 118°13'0 0.0
2018-Jan-29 16:30N 33°46' W 118°13'0 0.0
2018-Jan-29 16:00N 33°46' W 118°13'0 0.0
2018-Jan-29 15:31N 33°46' W 118°13'1 2.6
2018-Jan-29 15:01N 33°44' W 118°13'1 2.6
2018-Jan-29 14:30N 33°46' W 118°13'1 2.9
2018-Jan-29 14:01N 33°44' W 118°12'0 0.3
2018-Jan-29 13:30N 33°44' W 118°12'0 0.1
2018-Jan-29 13:01N 33°44' W 118°12'0 0.3
2018-Jan-29 12:30N 33°44' W 118°12'0 0.0
2018-Jan-29 11:51N 33°44' W 118°12'0 0.5
2018-Jan-29 11:03N 33°45' W 118°12'0 2.2
2018-Jan-29 10:58N 33°45' W 118°12'2 3.5
2018-Jan-29 10:27N 33°44' W 118°10'2 5.2
2018-Jan-29 09:59N 33°45' W 118°13'1 1.7
2018-Jan-29 09:31N 33°46' W 118°13'0 0.0
2018-Jan-29 09:01N 33°46' W 118°13'0 0.1
2018-Jan-29 08:31N 33°46' W 118°13'0 0.1
2018-Jan-29 08:00N 33°46' W 118°13'0 0.0
2018-Jan-29 07:31N 33°46' W 118°13'0 0.0
2018-Jan-29 07:00N 33°46' W 118°13'0 0.0
2018-Jan-29 06:29N 33°46' W 118°13'0 0.0
2018-Jan-29 06:01N 33°46' W 118°13'0 0.0
2018-Jan-29 05:30N 33°46' W 118°13'1 2.4
2018-Jan-29 05:01N 33°46' W 118°15'2 3.1
2018-Jan-29 04:30N 33°45' W 118°16'3 4.3
2018-Jan-29 03:55N 33°44' W 118°14'3 6.3
2018-Jan-29 03:30N 33°46' W 118°14'0 0.3
2018-Jan-29 03:01N 33°46' W 118°14'0 0.0
2018-Jan-29 02:31N 33°46' W 118°14'0 0.0
2018-Jan-29 02:01N 33°46' W 118°14'2 4.6
2018-Jan-29 01:29N 33°44' W 118°12'1 1.5
2018-Jan-29 01:01N 33°44' W 118°11'0 0.1
2018-Jan-29 00:31N 33°44' W 118°11'1 2.1
2018-Jan-29 00:01N 33°45' W 118°12'0 0.4
2018-Jan-28 23:30N 33°45' W 118°12'2 4.6
2018-Jan-28 23:00N 33°43' W 118°14'2 4.9
2018-Jan-28 22:31N 33°45' W 118°16'1 2.3
2018-Jan-28 22:00N 33°46' W 118°16'0 0.5
2018-Jan-28 21:31N 33°46' W 118°16'0 0.0
2018-Jan-28 21:01N 33°46' W 118°16'1 2.4
2018-Jan-28 20:31N 33°45' W 118°16'3 5.2
2018-Jan-28 20:01N 33°43' W 118°14'2 4.3
2018-Jan-28 19:30N 33°45' W 118°12'0 0.1
2018-Jan-28 19:00N 33°45' W 118°12'1 2.7
2018-Jan-28 18:30N 33°46' W 118°13'0 0.1
2018-Jan-28 18:00N 33°46' W 118°13'0 0.0
2018-Jan-28 17:31N 33°46' W 118°13'0 0.0
2018-Jan-28 17:01N 33°46' W 118°13'0 0.0
2018-Jan-28 16:30N 33°46' W 118°13'0 0.0
2018-Jan-28 16:01N 33°46' W 118°13'0 0.0
2018-Jan-28 15:31N 33°46' W 118°13'0 0.0
2018-Jan-28 15:00N 33°46' W 118°13'0 0.0
2018-Jan-28 14:29N 33°46' W 118°13'2 4.5
2018-Jan-28 14:00N 33°45' W 118°16'1 1.4
2018-Jan-28 13:30N 33°45' W 118°16'0 0.9
2018-Jan-28 13:00N 33°44' W 118°17'2 4.4
2018-Jan-28 12:30N 33°43' W 118°15'3 6.1
2018-Jan-28 11:59N 33°46' W 118°16'0 0.0
2018-Jan-28 11:30N 33°46' W 118°16'0 0.0
2018-Jan-28 10:58N 33°46' W 118°16'0 0.0
2018-Jan-28 10:30N 33°46' W 118°16'0 0.1
2018-Jan-28 10:00N 33°46' W 118°16'0 0.1
2018-Jan-28 09:30N 33°46' W 118°16'0 0.0
2018-Jan-28 09:00N 33°46' W 118°16'0 0.0
2018-Jan-28 08:30N 33°46' W 118°16'0 0.0
2018-Jan-28 08:00N 33°46' W 118°16'0 0.0
2018-Jan-28 07:30N 33°46' W 118°16'0 0.0
2018-Jan-28 07:00N 33°46' W 118°16'3 2.9
2018-Jan-28 06:03N 33°44' W 118°13'0 0.0
2018-Jan-28 05:56N 33°44' W 118°13'2 3.2
2018-Jan-28 05:28N 33°46' W 118°13'0 0.0
2018-Jan-28 05:00N 33°46' W 118°13'0 0.0
2018-Jan-28 04:30N 33°46' W 118°13'0 0.0
2018-Jan-28 04:00N 33°46' W 118°13'0 0.0
2018-Jan-28 03:30N 33°46' W 118°13'1 2.6
2018-Jan-28 03:00N 33°44' W 118°13'3 5.8
2018-Jan-28 02:30N 33°44' W 118°16'1 2.5
2018-Jan-28 02:00N 33°45' W 118°16'1 2.1
2018-Jan-28 01:30N 33°46' W 118°16'0 0.1
2018-Jan-28 01:00N 33°46' W 118°16'0 0.0
2018-Jan-28 00:30N 33°46' W 118°16'0 0.0
2018-Jan-28 00:00N 33°46' W 118°16'0 0.1
2018-Jan-27 23:30N 33°46' W 118°16'0 0.0
2018-Jan-27 23:00N 33°46' W 118°16'0 0.0
2018-Jan-27 22:30N 33°46' W 118°16'1 2.1
2018-Jan-27 22:00N 33°45' W 118°16'0 0.7
2018-Jan-27 21:30N 33°45' W 118°16'0 0.0
2018-Jan-27 21:00N 33°45' W 118°16'0 0.0
2018-Jan-27 20:30N 33°45' W 118°16'3 5.5
2018-Jan-27 20:00N 33°43' W 118°14'2 3.3
2018-Jan-27 19:30N 33°44' W 118°13'3 5.3
2018-Jan-27 19:00N 33°43' W 118°16'3 5.1
2018-Jan-27 18:29N 33°46' W 118°16'1 2.7
2018-Jan-27 18:00N 33°46' W 118°14'1 1.8
2018-Jan-27 17:30N 33°46' W 118°13'0 0.0
2018-Jan-27 16:59N 33°46' W 118°13'0 0.0
2018-Jan-27 16:30N 33°46' W 118°13'0 0.0
2018-Jan-27 16:00N 33°46' W 118°13'0 0.0
2018-Jan-27 15:30N 33°46' W 118°13'0 0.0
2018-Jan-27 15:00N 33°46' W 118°13'2 4.0
2018-Jan-27 14:29N 33°46' W 118°16'1 1.7
2018-Jan-27 14:01N 33°45' W 118°16'1 1.4
2018-Jan-27 13:30N 33°46' W 118°17'1 1.0
2018-Jan-27 13:00N 33°45' W 118°16'0 0.8
2018-Jan-27 12:30N 33°46' W 118°17'1 1.5
2018-Jan-27 12:00N 33°46' W 118°16'0 0.0
2018-Jan-27 11:30N 33°46' W 118°16'0 0.0
2018-Jan-27 11:00N 33°46' W 118°16'0 0.0
2018-Jan-27 10:30N 33°46' W 118°16'0 0.1
2018-Jan-27 10:00N 33°46' W 118°16'0 0.2
2018-Jan-27 09:30N 33°46' W 118°16'1 1.4
2018-Jan-27 09:00N 33°45' W 118°16'3 4.9
2018-Jan-27 08:19N 33°42' W 118°14'0 0.6
2018-Jan-27 07:58N 33°42' W 118°14'3 6.5
2018-Jan-27 07:30N 33°45' W 118°16'1 2.4
2018-Jan-27 07:00N 33°46' W 118°16'0 0.3
2018-Jan-27 06:30N 33°46' W 118°16'1 2.6
2018-Jan-27 06:00N 33°46' W 118°14'1 1.8
2018-Jan-27 05:30N 33°46' W 118°13'0 0.0
2018-Jan-27 05:00N 33°46' W 118°13'0 0.0
2018-Jan-27 04:29N 33°46' W 118°13'0 0.0
2018-Jan-27 03:46N 33°46' W 118°13'2 4.9
2018-Jan-27 03:20N 33°46' W 118°16'1 2.8
2018-Jan-27 02:55N 33°45' W 118°16'2 5.7
2018-Jan-27 02:30N 33°43' W 118°15'3 4.7
2018-Jan-27 01:52N 33°45' W 118°12'0 0.0
2018-Jan-27 01:30N 33°45' W 118°12'0 0.7
2018-Jan-27 01:00N 33°44' W 118°12'0 0.0
2018-Jan-27 00:30N 33°44' W 118°12'0 0.0
2018-Jan-27 00:00N 33°44' W 118°12'0 0.5
2018-Jan-26 23:30N 33°45' W 118°12'1 1.2
2018-Jan-26 23:00N 33°44' W 118°13'2 3.7
2018-Jan-26 22:30N 33°46' W 118°13'1 1.3
2018-Jan-26 22:00N 33°46' W 118°13'0 0.0
2018-Jan-26 21:30N 33°46' W 118°13'1 1.3
2018-Jan-26 21:00N 33°45' W 118°13'1 1.9
2018-Jan-26 20:28N 33°45' W 118°12'0 0.3
2018-Jan-26 20:00N 33°45' W 118°12'0 0.3
2018-Jan-26 19:30N 33°45' W 118°12'0 0.0
2018-Jan-26 18:57N 33°45' W 118°12'1 2.2
2018-Jan-26 18:30N 33°45' W 118°13'1 1.5
2018-Jan-26 18:00N 33°46' W 118°13'0 0.0
2018-Jan-26 17:30N 33°46' W 118°13'0 0.0
2018-Jan-26 17:00N 33°46' W 118°13'0 0.0
2018-Jan-26 16:30N 33°46' W 118°13'0 0.9
2018-Jan-26 15:58N 33°45' W 118°13'0 0.0
2018-Jan-26 15:30N 33°45' W 118°13'0 0.0
2018-Jan-26 14:59N 33°45' W 118°13'0 0.0
2018-Jan-26 14:08N 33°45' W 118°13'0 0.0
2018-Jan-26 13:48N 33°45' W 118°13'0 0.0
2018-Jan-26 12:30N 33°45' W 118°13'0 0.0
2018-Jan-26 11:55N 33°45' W 118°13'0 0.0
2018-Jan-26 11:29N 33°45' W 118°13'0 0.0
2018-Jan-26 10:30N 33°45' W 118°13'0 0.0
2018-Jan-26 09:59N 33°45' W 118°13'0 0.0
2018-Jan-26 09:27N 33°45' W 118°13'1 0.5
2018-Jan-26 08:23N 33°45' W 118°13'1 0.9
2018-Jan-26 07:42N 33°44' W 118°12'1 6.8
2018-Jan-26 07:30N 33°46' W 118°13'0 0.1
2018-Jan-26 07:00N 33°46' W 118°13'  

Dump ship's entire track history